Latest Weather Observations for Coolangatta

IDQ60901

Issued at 8:55 am EST Friday 28 November 2014 (issued every 10 minutes, with the page automatically refreshed every 10 minutes)

About weather observations | Map of Brisbane area stations | Latest observations for Brisbane area | Other Formats
Station Details ID: 040717 Name: COOLANGATTA Lat: -28.17 Lon: 153.51 Height: 4.0 m
Data from the previous 72 hours. | See also: Recent months at Coolangatta
Date/Time
EST
Tmp

°C
App
Tmp
°C
Dew
Point
°C
Rel
Hum
%
Delta-T

°C
Wind Press
QNH
hPa
Press
MSL
hPa
Rain
since
9 am
mm
Dir
 
Spd
km/h
Gust
km/h
Spd
kts
Gust
kts
28/08:30am 23.2 20.4 17.4 70 3.6 ESE 28 44 15 24 1019.7 1019.7 7.4
28/08:00am 23.2 21.0 18.7 76 2.8 ESE 28 43 15 23 1019.6 1019.6 7.4
28/07:56am 23.2 21.0 18.7 76 2.8 SE 28 43 15 23 1019.6 1019.6 7.4
28/07:30am 21.4 23.3 19.7 90 1.1 S 9 15 5 8 1019.5 1019.5 7.4
28/07:00am 21.1 22.8 19.4 90 1.1 SSW 9 13 5 7 1019.2 1019.2 7.4
28/06:30am 20.7 21.0 18.8 89 1.2 S 15 22 8 12 1019.0 1019.0 7.4
28/06:00am 21.0 21.8 19.1 89 1.2 S 13 17 7 9 1018.8 1018.7 7.2
28/05:30am 21.2 22.3 18.8 86 1.5 SSW 11 15 6 8 1018.5 1018.4 6.8
28/05:00am 21.0 22.5 18.8 87 1.4 SSW 9 15 5 8 1018.3 1018.2 6.8
28/04:30am 20.9 22.4 18.8 88 1.3 SSW 9 15 5 8 1017.9 1017.8 6.8
28/04:00am 20.9 21.6 18.8 88 1.3 S 13 20 7 11 1017.5 1017.4 6.8
28/03:30am 20.8 21.0 18.6 87 1.4 S 15 19 8 10 1017.3 1017.2 6.8
28/03:00am 20.7 21.3 18.5 87 1.4 S 13 17 7 9 1017.2 1017.1 6.8
28/02:30am 20.6 20.8 18.5 88 1.3 S 15 26 8 14 1017.2 1017.1 6.8
28/02:00am 20.4 21.4 18.7 90 1.1 S 11 20 6 11 1017.4 1017.3 6.8
28/01:56am 20.4 21.0 18.7 90 1.1 S 13 19 7 10 1017.4 1017.3 6.8
28/01:39am 20.5 21.2 18.8 90 1.1 SSW 13 19 7 10 1017.5 1017.4 6.6
28/01:30am 20.6 22.7 19.3 92 0.8 SSW 7 17 4 9 1017.6 1017.5 6.0
28/01:02am 20.6 22.3 19.4 93 0.8 E 9 17 5 9 1017.9 1017.8 6.0
28/01:00am 20.7 22.5 19.5 93 0.8 E 9 17 5 9 1017.9 1017.8 6.0
28/12:58am 20.7 22.9 19.5 93 0.8 E 7 15 4 8 1017.9 1017.8 6.0
28/12:40am 20.7 22.5 19.5 93 0.8 ESE 9 15 5 8 1018.1 1018.0 5.2
28/12:32am 20.7 21.3 19.5 93 0.8 ESE 15 19 8 10 1018.1 1018.0 4.6
28/12:30am 20.8 21.5 19.6 93 0.8 ESE 15 19 8 10 1018.1 1018.0 4.6
28/12:15am 20.9 21.2 19.7 93 0.8 ESE 17 26 9 14 1018.0 1017.9 4.6
28/12:11am 20.9 20.9 19.7 93 0.8 SE 19 26 10 14 1018.1 1018.0 4.2
28/12:00am 21.0 20.9 19.6 92 0.9 S 19 28 10 15 1018.1 1018.0 3.8
 
Date/Time
EST
Tmp

°C
App
Tmp
°C
Dew
Point
°C
Rel
Hum
%
Delta-T

°C
Wind Press
QNH
hPa
Press
MSL
hPa
Rain
since
9 am
mm
Dir
 
Spd
km/h
Gust
km/h
Spd
kts
Gust
kts
27/11:37pm 21.0 20.7 19.6 92 0.9 S 20 26 11 14 1018.1 1018.0 2.8
27/11:36pm 21.0 20.7 19.6 92 0.9 S 20 26 11 14 1018.1 1018.0 2.2
27/11:30pm 21.1 21.4 19.7 92 0.9 S 17 24 9 13 1018.1 1018.0 1.6
27/11:18pm 21.4 21.5 19.9 91 1.0 S 19 30 10 16 1018.3 1018.2 1.2
27/11:00pm 21.6 22.8 19.9 90 1.1 S 13 19 7 10 1018.3 1018.2 0.2
27/10:30pm 21.5 21.9 19.8 90 1.1 S 17 30 9 16 1018.4 1018.3 0.2
27/10:00pm 21.9 21.9 19.8 88 1.3 S 19 28 10 15 1018.4 1018.3 0.2
27/09:30pm 22.9 23.6 19.7 82 2.1 S 15 22 8 12 1018.2 1018.1 0.0
27/09:00pm 23.0 23.6 19.4 80 2.3 S 15 20 8 11 1018.2 1018.1 0.0
27/08:30pm 23.0 23.9 19.2 79 2.4 S 13 22 7 12 1018.0 1017.9 0.0
27/08:00pm 22.9 22.7 18.4 76 2.8 S 17 26 9 14 1017.4 1017.3 0.0
27/07:30pm 23.2 22.4 18.1 73 3.2 S 19 26 10 14 1016.8 1016.7 0.0
27/07:00pm 23.4 22.5 18.1 72 3.3 S 20 32 11 17 1016.9 1016.8 0.0
27/06:30pm 23.6 22.8 18.0 71 3.5 SSW 19 30 10 16 1016.5 1016.4 0.0
27/06:00pm 24.5 24.1 19.3 73 3.3 S 20 28 11 15 1016.6 1016.5 0.0
27/05:30pm 24.2 24.5 19.5 75 3.0 S 17 22 9 12 1016.3 1016.2 0.0
27/05:00pm 23.9 23.7 20.6 82 2.1 S 22 30 12 16 1016.2 1016.1 0.0
27/04:30pm 23.9 23.9 20.2 80 2.4 S 20 33 11 18 1015.9 1015.8 0.0
27/04:00pm 24.4 24.5 19.9 76 2.9 S 19 28 10 15 1015.4 1015.3 0.0
27/03:30pm 24.8 24.5 19.6 73 3.3 SSE 20 28 11 15 1015.0 1014.9 0.0
27/03:00pm 24.7 23.0 19.8 74 3.2 SSE 28 41 15 22 1014.5 1014.4 0.0
27/02:30pm 24.4 23.6 20.9 81 2.3 SSE 26 33 14 18 1014.6 1014.5 0.0
27/02:00pm 26.5 26.9 19.9 67 4.3 ENE 17 20 9 11 1014.8 1014.7 0.0
27/01:30pm 27.6 27.8 20.2 64 4.8 NE 19 24 10 13 1014.8 1014.7 0.0
27/01:00pm 27.7 28.3 21.3 68 4.3 NE 20 28 11 15 1014.7 1014.6 0.0
27/12:30pm 27.5 26.9 20.6 66 4.5 NNE 24 32 13 17 1014.7 1014.6 0.0
27/12:00pm 28.0 27.5 20.0 61 5.2 NNE 22 28 12 15 1014.9 1014.8 0.0
27/11:30am 27.5 26.7 20.1 64 4.8 NNE 24 30 13 16 1015.0 1014.9 0.0
27/11:00am 27.8 27.1 19.6 61 5.3 NNE 22 26 12 14 1015.3 1015.2 0.0
27/10:30am 28.3 28.2 19.5 59 5.7 NNE 19 24 10 13 1015.7 1015.6 0.0
27/10:00am 27.2 27.1 20.0 64 4.7 NNE 20 24 11 13 1016.0 1015.9 0.0
27/09:30am 26.9 27.0 20.3 67 4.3 NNE 20 24 11 13 1016.3 1016.2 0.0
27/09:00am 26.2 26.0 19.8 68 4.1 NNE 20 24 11 13 1016.4 1016.3 0.0
27/08:30am 26.5 26.9 19.9 67 4.3 NNE 17 20 9 11 1016.5 1016.4 0.0
27/08:00am 25.7 26.9 19.8 70 3.8 N 13 19 7 10 1016.7 1016.6 0.0
27/07:30am 25.2 26.4 19.8 72 3.5 N 13 15 7 8 1016.7 1016.6 0.0
27/07:00am 24.6 26.6 20.7 79 2.5 N 11 13 6 7 1016.6 1016.5 0.0
27/06:30am 22.4 25.9 20.3 88 1.4 N 2 7 1 4 1016.5 1016.4 0.0
27/06:00am 21.4 25.3 20.4 94 0.6 CALM 0 0 0 0 1016.2 1016.1 0.0
27/05:30am 20.6 24.1 19.6 94 0.6 CALM 0 0 0 0 1015.9 1015.8 0.0
27/05:00am 20.5 24.0 19.5 94 0.6 CALM 0 0 0 0 1015.6 1015.5 0.0
27/04:30am 20.1 23.3 18.9 93 0.8 CALM 0 0 0 0 1015.7 1015.6 0.0
27/04:00am 20.6 24.0 19.4 93 0.8 CALM 0 0 0 0 1015.4 1015.3 0.0
27/03:30am 20.6 24.0 19.3 92 0.8 CALM 0 0 0 0 1015.3 1015.2 0.0
27/03:00am 21.1 23.5 19.7 92 0.9 W 6 6 3 3 1015.2 1015.1 0.0
27/02:30am 21.3 25.0 19.9 92 0.9 CALM 0 0 0 0 1015.4 1015.3 0.0
27/02:00am 21.5 25.2 20.0 91 1.0 CALM 0 6 0 3 1015.3 1015.2 0.0
27/01:30am 21.8 25.3 20.3 91 1.0 SSW 2 6 1 3 1015.7 1015.6 0.0
27/01:00am 21.7 24.8 20.3 92 0.9 SSW 4 9 2 5 1016.0 1015.9 0.0
27/12:30am 21.8 24.4 20.4 92 0.9 NW 7 9 4 5 1016.0 1015.9 0.0
27/12:00am 22.2 26.3 20.7 91 1.0 CALM 0 0 0 0 1016.4 1016.3 0.0
 
Date/Time
EST
Tmp

°C
App
Tmp
°C
Dew
Point
°C
Rel
Hum
%
Delta-T

°C
Wind Press
QNH
hPa
Press
MSL
hPa
Rain
since
9 am
mm
Dir
 
Spd
km/h
Gust
km/h
Spd
kts
Gust
kts
26/11:30pm 22.4 26.5 20.7 90 1.1 CALM 0 0 0 0 1017.0 1016.9 0.0
26/11:00pm 22.4 24.9 20.3 88 1.4 N 7 9 4 5 1016.8 1016.7 0.0
26/10:30pm 22.6 24.7 20.1 86 1.6 N 9 13 5 7 1016.8 1016.7 0.0
26/10:00pm 22.9 24.2 20.2 85 1.7 NNE 13 15 7 8 1017.1 1017.0 0.0
26/09:30pm 23.2 24.9 20.2 83 1.9 N 11 13 6 7 1017.4 1017.3 0.0
26/09:00pm 23.1 24.8 20.1 83 1.9 N 11 13 6 7 1017.6 1017.5 0.0
26/08:30pm 22.9 25.0 20.1 84 1.8 N 9 9 5 5 1017.5 1017.4 0.0
26/08:00pm 23.8 26.5 20.3 81 2.3 ENE 6 9 3 5 1017.2 1017.1 0.0
26/07:30pm 23.5 27.2 20.0 81 2.3 CALM 0 0 0 0 1017.4 1017.3 0.0
26/07:00pm 23.6 26.2 20.1 81 2.3 ESE 6 9 3 5 1017.8 1017.7 0.0
26/06:30pm 23.6 26.0 20.1 81 2.3 SE 7 9 4 5 1017.4 1017.3 0.0
26/06:00pm 23.8 25.5 20.1 80 2.4 ESE 11 13 6 7 1016.9 1016.8 0.0
26/05:30pm 24.2 26.4 20.3 79 2.5 ESE 9 11 5 6 1016.5 1016.4 0.0
26/05:00pm 24.5 25.8 20.2 77 2.8 ESE 13 17 7 9 1016.1 1016.0 0.0
26/04:30pm 25.4 27.2 20.4 74 3.3 ESE 11 15 6 8 1016.1 1016.0 0.0
26/04:00pm 25.6 27.0 20.4 73 3.4 E 13 19 7 10 1016.1 1016.0 0.0
26/03:30pm 25.6 27.0 19.5 69 3.9 NNE 11 15 6 8 1016.2 1016.1 0.0
26/03:00pm 25.9 27.4 19.8 69 3.9 N 11 17 6 9 1016.1 1016.0 0.0
26/02:30pm 25.8 27.4 19.9 70 3.8 NNE 11 17 6 9 1015.9 1015.8 0.0
26/02:00pm 25.7 27.2 20.5 73 3.4 NE 13 17 7 9 1016.0 1015.9 0.0
26/01:30pm 26.1 27.3 20.7 72 3.5 NE 15 20 8 11 1016.2 1016.1 0.0
26/01:00pm 26.8 27.6 20.6 69 4.1 NE 17 20 9 11 1016.3 1016.2 0.0
26/12:30pm 27.3 28.0 20.4 66 4.5 NE 17 24 9 13 1016.6 1016.5 0.0
26/12:00pm 26.4 26.5 20.3 69 4.0 ENE 20 24 11 13 1016.8 1016.7 0.0
26/11:30am 27.5 28.1 20.3 65 4.7 ENE 17 22 9 12 1017.1 1017.0 0.0
26/11:00am 27.3 27.7 19.9 64 4.8 ENE 17 20 9 11 1017.3 1017.2 0.0
26/10:30am 26.8 26.8 20.2 67 4.3 ENE 20 24 11 13 1017.3 1017.2 0.0
26/10:00am 25.9 25.8 19.5 68 4.1 NE 19 22 10 12 1017.5 1017.4 0.0
26/09:30am 27.1 27.2 19.9 64 4.7 ENE 19 22 10 12 1017.5 1017.4 0.0
26/09:00am 27.5 28.0 20.1 64 4.8 ENE 17 20 9 11 1017.5 1017.4 0.0
26/08:30am 26.1 28.9 19.7 68 4.1 SSW 4 9 2 5 1017.7 1017.6 0.0
26/08:00am 26.2 27.1 19.3 65 4.4 SSE 13 19 7 10 1017.5 1017.4 0.0
26/07:30am 25.9 27.4 19.8 69 4.0 S 11 15 6 8 1017.5 1017.4 0.0
26/07:00am 24.9 26.3 19.5 72 3.5 S 11 17 6 9 1017.6 1017.5 0.0
26/06:30am 24.0 25.7 19.3 75 3.0 S 9 11 5 6 1017.3 1017.2 0.0
26/06:00am 23.7 25.0 19.4 77 2.7 SSW 11 17 6 9 1017.1 1017.0 0.0
26/05:30am 22.9 24.8 19.7 82 2.1 S 9 11 5 6 1016.8 1016.7 0.0
26/05:00am 22.7 24.9 19.5 82 2.0 SSW 7 11 4 6 1016.5 1016.4 0.0
26/04:30am 22.7 24.9 19.5 82 2.0 S 7 9 4 5 1016.4 1016.3 0.0
26/04:00am 22.7 24.0 19.3 81 2.2 S 11 13 6 7 1016.0 1015.9 0.0
26/03:30am 22.7 24.8 19.3 81 2.2 S 7 9 4 5 1016.0 1015.9 0.0
26/03:00am 22.5 24.1 19.1 81 2.2 SSE 9 13 5 7 1015.8 1015.7 0.0
26/02:30am 22.5 23.3 19.1 81 2.2 SE 13 19 7 10 1015.8 1015.7 0.0
26/02:00am 22.5 24.0 19.7 84 1.8 SE 11 13 6 7 1015.9 1015.8 0.0
26/01:30am 21.8 24.1 19.4 86 1.5 SE 6 7 3 4 1016.2 1016.1 0.0
26/01:00am 21.9 24.1 19.5 86 1.5 SSE 7 9 4 5 1016.4 1016.3 0.0
26/12:30am 22.3 24.6 19.8 86 1.6 S 7 9 4 5 1016.8 1016.7 0.0
26/12:00am 23.0 27.0 20.5 86 1.6 CALM 0 0 0 0 1017.3 1017.2 0.0
 
Date/Time
EST
Tmp

°C
App
Tmp
°C
Dew
Point
°C
Rel
Hum
%
Delta-T

°C
Wind Press
QNH
hPa
Press
MSL
hPa
Rain
since
9 am
mm
Dir
 
Spd
km/h
Gust
km/h
Spd
kts
Gust
kts
25/11:30pm 22.8 26.7 20.3 86 1.6 CALM 0 0 0 0 1017.7 1017.6 0.0
25/11:00pm 22.9 25.6 20.6 87 1.5 SW 7 9 4 5 1017.8 1017.7 0.0
25/10:30pm 23.0 27.0 20.5 86 1.6 CALM 0 0 0 0 1017.8 1017.7 0.0
25/10:18pm 23.0 26.4 20.1 84 1.9 S 2 6 1 3 1017.8 1017.7 0.0
25/10:01pm 23.3 26.1 20.4 84 1.9 S 6 7 3 4 1017.9 1017.8 0.0
25/10:00pm 23.3 26.1 20.4 84 1.9 S 6 7 3 4 1017.9 1017.8 0.0
25/09:30pm 23.7 25.9 20.4 82 2.1 S 9 11 5 6 1017.8 1017.7 0.0
25/09:00pm 24.0 25.5 20.5 81 2.3 SSE 13 20 7 11 1017.8 1017.7 0.0
25/08:30pm 24.9 27.4 21.0 79 2.6 ESE 9 11 5 6 1017.5 1017.4 0.0
25/08:00pm 24.6 27.0 20.9 80 2.4 SSE 9 11 5 6 1017.1 1017.0 0.0
25/07:30pm 24.4 26.5 20.9 81 2.3 SSE 11 13 6 7 1016.7 1016.6 0.0
25/07:00pm 23.7 25.9 20.4 82 2.1 SSE 9 13 5 7 1016.1 1016.0 0.0
25/06:30pm 24.2 28.2 20.5 80 2.4 CALM 0 0 0 0 1015.3 1015.2 0.0
25/06:00pm 23.9 26.7 20.4 81 2.3 N 6 9 3 5 1014.5 1014.4 0.0
25/05:30pm 23.9 25.1 20.0 79 2.5 N 13 17 7 9 1013.5 1013.4 0.0
25/05:00pm 24.2 24.5 19.7 76 2.9 N 17 24 9 13 1012.4 1012.3 0.0
25/04:30pm 25.2 25.1 19.6 71 3.6 N 19 26 10 14 1012.4 1012.3 0.0
25/04:00pm 25.3 25.4 19.2 69 3.9 N 17 24 9 13 1012.3 1012.2 0.0
25/03:30pm 26.2 25.5 19.6 67 4.3 N 22 30 12 16 1012.1 1012.0 0.0
25/03:00pm 24.9 23.4 18.6 68 4.0 N 24 35 13 19 1012.1 1012.0 0.0
25/02:30pm 25.8 23.9 18.5 64 4.6 N 26 35 14 19 1012.2 1012.1 0.0
25/02:00pm 26.8 25.2 18.4 60 5.3 N 24 33 13 18 1012.5 1012.4 0.0
25/01:30pm 26.3 23.6 17.6 58 5.5 N 28 35 15 19 1012.5 1012.4 0.0
25/01:00pm 25.6 22.9 17.5 61 5.1 N 28 37 15 20 1012.7 1012.6 0.0
25/12:30pm 26.2 22.6 17.3 58 5.6 N 32 41 17 22 1012.9 1012.8 0.0
25/12:00pm 25.8 22.3 18.0 62 4.9 N 33 41 18 22 1013.2 1013.1 0.0
25/11:30am 26.9 23.3 17.1 55 6.1 N 32 41 17 22 1013.5 1013.4 0.0
25/11:00am 25.5 20.9 15.2 53 6.2 N 33 41 18 22 1013.8 1013.7 0.0
25/10:30am 27.1 22.1 15.1 47 7.3 N 35 44 19 24 1014.1 1014.0 0.0
25/10:00am 26.8 22.8 16.1 52 6.6 N 32 43 17 23 1014.6 1014.5 0.0
25/09:30am 26.5 22.7 17.3 57 5.8 N 33 41 18 22 1014.9 1014.8 0.0
25/09:00am 26.4 23.5 18.0 60 5.3 N 30 39 16 21 1015.0 1014.9 0.0

Latest Capital City Observations: Canberra | Sydney | Melbourne | Brisbane | Adelaide | Perth | Hobart | Darwin

Other Formats:

Comma delimited format used in spreadsheet applications
http://www.bom.gov.au/fwo/IDQ60901/IDQ60901.94592.axf

JavaScript Object Notation format (JSON) in row-major order
http://www.bom.gov.au/fwo/IDQ60901/IDQ60901.94592.json